sensor_id;sensor_type;location;lat;lon;timestamp;P1;durP1;ratioP1;P2;durP2;ratioP2
12970;SDS011;6550;48.650;8.774;2023-04-25T00:00:58;1.30;;;1.17;;
12970;SDS011;6550;48.650;8.774;2023-04-25T00:03:24;1.00;;;1.00;;
12970;SDS011;6550;48.650;8.774;2023-04-25T00:05:51;1.87;;;1.20;;
12970;SDS011;6550;48.650;8.774;2023-04-25T00:08:18;1.17;;;1.07;;
12970;SDS011;6550;48.650;8.774;2023-04-25T00:10:48;1.93;;;1.30;;
12970;SDS011;6550;48.650;8.774;2023-04-25T00:13:15;1.23;;;1.17;;
12970;SDS011;6550;48.650;8.774;2023-04-25T00:15:43;2.13;;;1.20;;
12970;SDS011;6550;48.650;8.774;2023-04-25T00:18:10;1.10;;;1.00;;
12970;SDS011;6550;48.650;8.774;2023-04-25T00:20:37;1.20;;;1.07;;
12970;SDS011;6550;48.650;8.774;2023-04-25T00:23:04;2.27;;;1.10;;
12970;SDS011;6550;48.650;8.774;2023-04-25T00:25:31;3.00;;;1.20;;
12970;SDS011;6550;48.650;8.774;2023-04-25T00:28:00;2.83;;;1.27;;
12970;SDS011;6550;48.650;8.774;2023-04-25T00:30:27;3.03;;;1.17;;
12970;SDS011;6550;48.650;8.774;2023-04-25T00:32:54;1.30;;;1.20;;
12970;SDS011;6550;48.650;8.774;2023-04-25T00:35:21;1.20;;;1.10;;
12970;SDS011;6550;48.650;8.774;2023-04-25T00:37:48;1.20;;;1.10;;
12970;SDS011;6550;48.650;8.774;2023-04-25T00:40:15;1.20;;;1.10;;
12970;SDS011;6550;48.650;8.774;2023-04-25T00:42:42;9.83;;;1.40;;
12970;SDS011;6550;48.650;8.774;2023-04-25T00:45:10;3.27;;;1.13;;
12970;SDS011;6550;48.650;8.774;2023-04-25T00:47:41;3.13;;;1.30;;
12970;SDS011;6550;48.650;8.774;2023-04-25T00:50:10;3.20;;;1.30;;
12970;SDS011;6550;48.650;8.774;2023-04-25T00:52:38;2.00;;;1.00;;
12970;SDS011;6550;48.650;8.774;2023-04-25T00:55:07;2.30;;;1.30;;
12970;SDS011;6550;48.650;8.774;2023-04-25T00:57:34;1.40;;;1.30;;
12970;SDS011;6550;48.650;8.774;2023-04-25T01:00:02;4.00;;;1.67;;
12970;SDS011;6550;48.650;8.774;2023-04-25T01:02:33;3.43;;;1.50;;
12970;SDS011;6550;48.650;8.774;2023-04-25T01:05:03;1.80;;;1.47;;
12970;SDS011;6550;48.650;8.774;2023-04-25T01:07:31;4.53;;;1.60;;
12970;SDS011;6550;48.650;8.774;2023-04-25T01:10:02;2.87;;;1.43;;
12970;SDS011;6550;48.650;8.774;2023-04-25T01:12:30;3.40;;;2.00;;
12970;SDS011;6550;48.650;8.774;2023-04-25T01:14:59;2.77;;;1.60;;
12970;SDS011;6550;48.650;8.774;2023-04-25T01:17:26;1.63;;;1.50;;
12970;SDS011;6550;48.650;8.774;2023-04-25T01:19:57;2.07;;;1.30;;
12970;SDS011;6550;48.650;8.774;2023-04-25T01:22:24;1.70;;;1.40;;
12970;SDS011;6550;48.650;8.774;2023-04-25T01:24:52;3.23;;;1.70;;
12970;SDS011;6550;48.650;8.774;2023-04-25T01:27:19;3.87;;;2.00;;
12970;SDS011;6550;48.650;8.774;2023-04-25T01:29:46;1.60;;;1.50;;
12970;SDS011;6550;48.650;8.774;2023-04-25T01:32:14;2.00;;;1.40;;
12970;SDS011;6550;48.650;8.774;2023-04-25T01:34:41;1.43;;;1.30;;
12970;SDS011;6550;48.650;8.774;2023-04-25T01:37:08;3.37;;;1.60;;
12970;SDS011;6550;48.650;8.774;2023-04-25T01:39:35;2.10;;;1.30;;
12970;SDS011;6550;48.650;8.774;2023-04-25T01:42:02;4.27;;;1.57;;
12970;SDS011;6550;48.650;8.774;2023-04-25T01:44:29;2.03;;;1.50;;
12970;SDS011;6550;48.650;8.774;2023-04-25T01:47:01;2.53;;;1.97;;
12970;SDS011;6550;48.650;8.774;2023-04-25T01:49:28;2.07;;;1.40;;
12970;SDS011;6550;48.650;8.774;2023-04-25T01:51:54;3.00;;;1.40;;
12970;SDS011;6550;48.650;8.774;2023-04-25T01:54:21;2.13;;;1.40;;
12970;SDS011;6550;48.650;8.774;2023-04-25T01:56:51;2.40;;;1.30;;
12970;SDS011;6550;48.650;8.774;2023-04-25T01:59:18;1.40;;;1.30;;
12970;SDS011;6550;48.650;8.774;2023-04-25T02:01:47;1.63;;;1.07;;
12970;SDS011;6550;48.650;8.774;2023-04-25T02:04:15;2.27;;;1.27;;
12970;SDS011;6550;48.650;8.774;2023-04-25T02:06:42;1.83;;;1.30;;
12970;SDS011;6550;48.650;8.774;2023-04-25T02:09:09;3.80;;;1.50;;
12970;SDS011;6550;48.650;8.774;2023-04-25T02:11:36;1.50;;;1.40;;
12970;SDS011;6550;48.650;8.774;2023-04-25T02:14:03;1.73;;;1.60;;
12970;SDS011;6550;48.650;8.774;2023-04-25T02:16:30;1.30;;;1.13;;
12970;SDS011;6550;48.650;8.774;2023-04-25T02:18:59;2.27;;;1.50;;
12970;SDS011;6550;48.650;8.774;2023-04-25T02:21:28;1.97;;;1.37;;
12970;SDS011;6550;48.650;8.774;2023-04-25T02:23:57;1.27;;;1.17;;
12970;SDS011;6550;48.650;8.774;2023-04-25T02:26:26;1.00;;;1.00;;
12970;SDS011;6550;48.650;8.774;2023-04-25T02:28:56;1.40;;;1.30;;
12970;SDS011;6550;48.650;8.774;2023-04-25T02:31:23;1.57;;;1.47;;
12970;SDS011;6550;48.650;8.774;2023-04-25T02:33:50;4.00;;;1.43;;
12970;SDS011;6550;48.650;8.774;2023-04-25T02:36:17;3.33;;;1.40;;
12970;SDS011;6550;48.650;8.774;2023-04-25T02:38:46;1.10;;;1.10;;
12970;SDS011;6550;48.650;8.774;2023-04-25T02:41:13;1.27;;;1.17;;
12970;SDS011;6550;48.650;8.774;2023-04-25T02:43:40;4.80;;;1.50;;
12970;SDS011;6550;48.650;8.774;2023-04-25T02:46:07;1.30;;;1.20;;
12970;SDS011;6550;48.650;8.774;2023-04-25T02:48:36;1.30;;;1.20;;
12970;SDS011;6550;48.650;8.774;2023-04-25T02:51:03;3.00;;;1.30;;
12970;SDS011;6550;48.650;8.774;2023-04-25T02:53:32;4.07;;;1.47;;
12970;SDS011;6550;48.650;8.774;2023-04-25T02:56:01;8.20;;;1.50;;
12970;SDS011;6550;48.650;8.774;2023-04-25T02:58:28;1.30;;;1.20;;
12970;SDS011;6550;48.650;8.774;2023-04-25T03:00:59;1.73;;;1.57;;
12970;SDS011;6550;48.650;8.774;2023-04-25T03:03:26;2.27;;;1.47;;
12970;SDS011;6550;48.650;8.774;2023-04-25T03:05:53;1.30;;;1.10;;
12970;SDS011;6550;48.650;8.774;2023-04-25T03:08:22;2.17;;;1.30;;
12970;SDS011;6550;48.650;8.774;2023-04-25T03:10:55;2.17;;;1.33;;
12970;SDS011;6550;48.650;8.774;2023-04-25T03:13:23;1.30;;;1.20;;
12970;SDS011;6550;48.650;8.774;2023-04-25T03:15:53;3.13;;;1.30;;
12970;SDS011;6550;48.650;8.774;2023-04-25T03:18:23;2.75;;;1.40;;
12970;SDS011;6550;48.650;8.774;2023-04-25T03:20:50;4.73;;;1.40;;
12970;SDS011;6550;48.650;8.774;2023-04-25T03:23:17;1.70;;;1.10;;
12970;SDS011;6550;48.650;8.774;2023-04-25T03:25:44;1.00;;;1.00;;
12970;SDS011;6550;48.650;8.774;2023-04-25T03:28:11;1.60;;;1.13;;
12970;SDS011;6550;48.650;8.774;2023-04-25T03:30:37;7.93;;;1.37;;
12970;SDS011;6550;48.650;8.774;2023-04-25T03:33:04;2.07;;;1.30;;
12970;SDS011;6550;48.650;8.774;2023-04-25T03:35:31;2.47;;;1.50;;
12970;SDS011;6550;48.650;8.774;2023-04-25T03:38:03;2.63;;;1.45;;
12970;SDS011;6550;48.650;8.774;2023-04-25T03:40:30;2.33;;;1.60;;
12970;SDS011;6550;48.650;8.774;2023-04-25T03:42:57;1.30;;;1.20;;
12970;SDS011;6550;48.650;8.774;2023-04-25T03:45:24;2.43;;;1.30;;
12970;SDS011;6550;48.650;8.774;2023-04-25T03:47:51;4.00;;;1.57;;
12970;SDS011;6550;48.650;8.774;2023-04-25T03:50:20;1.80;;;1.43;;
12970;SDS011;6550;48.650;8.774;2023-04-25T03:52:47;2.17;;;1.50;;
12970;SDS011;6550;48.650;8.774;2023-04-25T03:55:14;3.40;;;1.10;;
12970;SDS011;6550;48.650;8.774;2023-04-25T03:57:41;2.17;;;1.40;;
12970;SDS011;6550;48.650;8.774;2023-04-25T04:00:11;1.83;;;1.30;;
12970;SDS011;6550;48.650;8.774;2023-04-25T04:02:38;8.80;;;1.67;;
12970;SDS011;6550;48.650;8.774;2023-04-25T04:05:07;6.23;;;1.33;;
12970;SDS011;6550;48.650;8.774;2023-04-25T04:07:34;10.30;;;1.43;;
12970;SDS011;6550;48.650;8.774;2023-04-25T04:10:09;4.33;;;1.23;;
12970;SDS011;6550;48.650;8.774;2023-04-25T04:12:36;5.50;;;1.57;;
12970;SDS011;6550;48.650;8.774;2023-04-25T04:15:04;6.27;;;1.60;;
12970;SDS011;6550;48.650;8.774;2023-04-25T04:17:32;7.90;;;1.60;;
12970;SDS011;6550;48.650;8.774;2023-04-25T04:19:59;5.47;;;1.60;;
12970;SDS011;6550;48.650;8.774;2023-04-25T04:22:29;7.73;;;2.10;;
12970;SDS011;6550;48.650;8.774;2023-04-25T04:25:03;1.67;;;1.37;;
12970;SDS011;6550;48.650;8.774;2023-04-25T04:27:32;5.03;;;1.83;;
12970;SDS011;6550;48.650;8.774;2023-04-25T04:29:59;4.13;;;1.50;;
12970;SDS011;6550;48.650;8.774;2023-04-25T04:32:26;3.93;;;1.73;;
12970;SDS011;6550;48.650;8.774;2023-04-25T04:34:56;7.72;;;2.10;;
12970;SDS011;6550;48.650;8.774;2023-04-25T04:37:23;11.77;;;1.77;;
12970;SDS011;6550;48.650;8.774;2023-04-25T04:39:50;12.13;;;1.93;;
12970;SDS011;6550;48.650;8.774;2023-04-25T04:42:18;4.90;;;1.97;;
12970;SDS011;6550;48.650;8.774;2023-04-25T04:44:45;18.80;;;2.03;;
12970;SDS011;6550;48.650;8.774;2023-04-25T04:47:15;9.17;;;2.13;;
12970;SDS011;6550;48.650;8.774;2023-04-25T04:49:42;84.27;;;5.67;;
12970;SDS011;6550;48.650;8.774;2023-04-25T04:52:11;65.43;;;5.50;;
12970;SDS011;6550;48.650;8.774;2023-04-25T04:54:38;36.60;;;3.83;;
12970;SDS011;6550;48.650;8.774;2023-04-25T04:57:07;24.30;;;3.27;;
12970;SDS011;6550;48.650;8.774;2023-04-25T04:59:34;39.80;;;3.97;;
12970;SDS011;6550;48.650;8.774;2023-04-25T05:02:03;24.73;;;3.07;;
12970;SDS011;6550;48.650;8.774;2023-04-25T05:04:30;26.60;;;2.40;;
12970;SDS011;6550;48.650;8.774;2023-04-25T05:06:57;9.50;;;2.10;;
12970;SDS011;6550;48.650;8.774;2023-04-25T05:09:24;8.13;;;2.10;;
12970;SDS011;6550;48.650;8.774;2023-04-25T05:11:53;12.13;;;2.00;;
12970;SDS011;6550;48.650;8.774;2023-04-25T05:14:22;16.23;;;2.58;;
12970;SDS011;6550;48.650;8.774;2023-04-25T05:16:49;8.57;;;2.13;;
12970;SDS011;6550;48.650;8.774;2023-04-25T05:19:18;16.47;;;2.43;;
12970;SDS011;6550;48.650;8.774;2023-04-25T05:21:45;10.17;;;2.40;;
12970;SDS011;6550;48.650;8.774;2023-04-25T05:24:15;5.63;;;2.27;;
12970;SDS011;6550;48.650;8.774;2023-04-25T05:26:42;7.37;;;2.10;;
12970;SDS011;6550;48.650;8.774;2023-04-25T05:29:09;6.97;;;2.50;;
12970;SDS011;6550;48.650;8.774;2023-04-25T05:31:38;16.07;;;2.60;;
12970;SDS011;6550;48.650;8.774;2023-04-25T05:34:05;26.48;;;3.72;;
12970;SDS011;6550;48.650;8.774;2023-04-25T05:36:31;74.33;;;4.03;;
12970;SDS011;6550;48.650;8.774;2023-04-25T05:39:00;33.10;;;2.80;;
12970;SDS011;6550;48.650;8.774;2023-04-25T05:41:27;32.57;;;3.83;;
12970;SDS011;6550;48.650;8.774;2023-04-25T05:43:56;26.23;;;2.93;;
12970;SDS011;6550;48.650;8.774;2023-04-25T05:46:25;21.37;;;2.60;;
12970;SDS011;6550;48.650;8.774;2023-04-25T05:48:52;17.40;;;2.50;;
12970;SDS011;6550;48.650;8.774;2023-04-25T05:51:19;14.33;;;3.10;;
12970;SDS011;6550;48.650;8.774;2023-04-25T05:53:46;19.08;;;2.67;;
12970;SDS011;6550;48.650;8.774;2023-04-25T05:56:15;7.40;;;2.50;;
12970;SDS011;6550;48.650;8.774;2023-04-25T05:58:42;14.83;;;2.57;;
12970;SDS011;6550;48.650;8.774;2023-04-25T06:01:09;9.10;;;2.57;;
12970;SDS011;6550;48.650;8.774;2023-04-25T06:03:38;6.83;;;2.37;;
12970;SDS011;6550;48.650;8.774;2023-04-25T06:06:11;7.17;;;2.87;;
12970;SDS011;6550;48.650;8.774;2023-04-25T06:08:38;5.67;;;2.73;;
12970;SDS011;6550;48.650;8.774;2023-04-25T06:11:05;8.10;;;2.33;;
12970;SDS011;6550;48.650;8.774;2023-04-25T06:13:32;6.30;;;2.20;;
12970;SDS011;6550;48.650;8.774;2023-04-25T06:15:59;16.40;;;2.50;;
12970;SDS011;6550;48.650;8.774;2023-04-25T06:18:28;2.87;;;2.07;;
12970;SDS011;6550;48.650;8.774;2023-04-25T06:20:55;3.87;;;2.43;;
12970;SDS011;6550;48.650;8.774;2023-04-25T06:23:22;2.83;;;2.27;;
12970;SDS011;6550;48.650;8.774;2023-04-25T06:25:49;5.27;;;2.40;;
12970;SDS011;6550;48.650;8.774;2023-04-25T06:28:16;16.80;;;2.43;;
12970;SDS011;6550;48.650;8.774;2023-04-25T06:30:43;6.85;;;2.47;;
12970;SDS011;6550;48.650;8.774;2023-04-25T06:33:13;12.87;;;3.40;;
12970;SDS011;6550;48.650;8.774;2023-04-25T06:35:40;9.60;;;3.20;;
12970;SDS011;6550;48.650;8.774;2023-04-25T06:38:10;12.07;;;3.47;;
12970;SDS011;6550;48.650;8.774;2023-04-25T06:40:37;9.47;;;2.40;;
12970;SDS011;6550;48.650;8.774;2023-04-25T06:43:03;14.27;;;3.23;;
12970;SDS011;6550;48.650;8.774;2023-04-25T06:45:30;12.17;;;3.03;;
12970;SDS011;6550;48.650;8.774;2023-04-25T06:47:59;19.87;;;3.17;;
12970;SDS011;6550;48.650;8.774;2023-04-25T06:50:26;18.37;;;3.60;;
12970;SDS011;6550;48.650;8.774;2023-04-25T06:52:53;7.23;;;2.33;;
12970;SDS011;6550;48.650;8.774;2023-04-25T06:55:20;14.97;;;2.40;;
12970;SDS011;6550;48.650;8.774;2023-04-25T06:57:49;9.97;;;2.40;;
12970;SDS011;6550;48.650;8.774;2023-04-25T07:00:16;18.27;;;2.43;;
12970;SDS011;6550;48.650;8.774;2023-04-25T07:02:43;30.53;;;3.23;;
12970;SDS011;6550;48.650;8.774;2023-04-25T07:05:13;77.20;;;5.77;;
12970;SDS011;6550;48.650;8.774;2023-04-25T07:07:44;34.40;;;3.55;;
12970;SDS011;6550;48.650;8.774;2023-04-25T07:10:11;18.97;;;2.83;;
12970;SDS011;6550;48.650;8.774;2023-04-25T07:12:37;37.10;;;3.10;;
12970;SDS011;6550;48.650;8.774;2023-04-25T07:15:04;33.23;;;3.37;;
12970;SDS011;6550;48.650;8.774;2023-04-25T07:17:32;25.27;;;2.87;;
12970;SDS011;6550;48.650;8.774;2023-04-25T07:19:59;32.13;;;3.40;;
12970;SDS011;6550;48.650;8.774;2023-04-25T07:22:26;15.10;;;3.13;;
12970;SDS011;6550;48.650;8.774;2023-04-25T07:24:53;35.97;;;4.40;;
12970;SDS011;6550;48.650;8.774;2023-04-25T07:27:21;24.55;;;3.42;;
12970;SDS011;6550;48.650;8.774;2023-04-25T07:29:48;28.13;;;4.63;;
12970;SDS011;6550;48.650;8.774;2023-04-25T07:32:15;24.70;;;4.40;;
12970;SDS011;6550;48.650;8.774;2023-04-25T07:34:42;45.13;;;5.07;;
12970;SDS011;6550;48.650;8.774;2023-04-25T07:37:09;43.90;;;4.70;;
12970;SDS011;6550;48.650;8.774;2023-04-25T07:39:38;20.33;;;5.40;;
12970;SDS011;6550;48.650;8.774;2023-04-25T07:42:04;31.77;;;5.40;;
12970;SDS011;6550;48.650;8.774;2023-04-25T07:44:34;32.45;;;5.57;;
12970;SDS011;6550;48.650;8.774;2023-04-25T07:47:05;29.20;;;5.30;;
12970;SDS011;6550;48.650;8.774;2023-04-25T07:49:35;25.03;;;4.50;;
12970;SDS011;6550;48.650;8.774;2023-04-25T07:52:06;21.90;;;4.17;;
12970;SDS011;6550;48.650;8.774;2023-04-25T07:54:35;15.80;;;4.27;;
12970;SDS011;6550;48.650;8.774;2023-04-25T07:57:02;15.00;;;3.73;;
12970;SDS011;6550;48.650;8.774;2023-04-25T07:59:29;23.60;;;5.00;;
12970;SDS011;6550;48.650;8.774;2023-04-25T08:01:56;9.87;;;3.20;;
12970;SDS011;6550;48.650;8.774;2023-04-25T08:04:23;37.58;;;5.93;;
12970;SDS011;6550;48.650;8.774;2023-04-25T08:06:52;37.20;;;4.27;;
12970;SDS011;6550;48.650;8.774;2023-04-25T08:09:22;40.23;;;4.97;;
12970;SDS011;6550;48.650;8.774;2023-04-25T08:11:49;27.20;;;4.20;;
12970;SDS011;6550;48.650;8.774;2023-04-25T08:14:16;31.57;;;3.60;;
12970;SDS011;6550;48.650;8.774;2023-04-25T08:16:45;23.40;;;4.10;;
12970;SDS011;6550;48.650;8.774;2023-04-25T08:19:12;32.27;;;5.00;;
12970;SDS011;6550;48.650;8.774;2023-04-25T08:21:41;46.97;;;6.53;;
12970;SDS011;6550;48.650;8.774;2023-04-25T08:24:08;30.27;;;4.00;;
12970;SDS011;6550;48.650;8.774;2023-04-25T08:26:35;36.00;;;5.30;;
12970;SDS011;6550;48.650;8.774;2023-04-25T08:29:04;74.77;;;5.83;;
12970;SDS011;6550;48.650;8.774;2023-04-25T08:31:31;33.37;;;4.07;;
12970;SDS011;6550;48.650;8.774;2023-04-25T08:33:58;38.23;;;4.23;;
12970;SDS011;6550;48.650;8.774;2023-04-25T08:36:25;44.13;;;4.27;;
12970;SDS011;6550;48.650;8.774;2023-04-25T08:39:05;106.67;;;8.77;;
12970;SDS011;6550;48.650;8.774;2023-04-25T08:41:32;107.43;;;7.97;;
12970;SDS011;6550;48.650;8.774;2023-04-25T08:43:59;97.70;;;6.60;;
12970;SDS011;6550;48.650;8.774;2023-04-25T08:46:29;131.03;;;8.10;;
12970;SDS011;6550;48.650;8.774;2023-04-25T08:49:00;218.47;;;12.83;;
12970;SDS011;6550;48.650;8.774;2023-04-25T08:51:32;257.00;;;13.53;;
12970;SDS011;6550;48.650;8.774;2023-04-25T08:54:04;181.37;;;10.73;;
12970;SDS011;6550;48.650;8.774;2023-04-25T08:56:42;95.30;;;8.83;;
12970;SDS011;6550;48.650;8.774;2023-04-25T08:59:14;65.65;;;5.60;;
12970;SDS011;6550;48.650;8.774;2023-04-25T09:01:43;50.60;;;6.47;;
12970;SDS011;6550;48.650;8.774;2023-04-25T09:04:12;45.37;;;4.70;;
12970;SDS011;6550;48.650;8.774;2023-04-25T09:06:39;34.60;;;4.53;;
12970;SDS011;6550;48.650;8.774;2023-04-25T09:09:08;21.83;;;3.23;;
12970;SDS011;6550;48.650;8.774;2023-04-25T09:11:36;34.13;;;3.60;;
12970;SDS011;6550;48.650;8.774;2023-04-25T09:14:13;25.10;;;3.70;;
12970;SDS011;6550;48.650;8.774;2023-04-25T09:19:25;14.18;;;2.90;;
12970;SDS011;6550;48.650;8.774;2023-04-25T09:22:06;7.93;;;2.23;;
12970;SDS011;6550;48.650;8.774;2023-04-25T09:27:04;17.70;;;2.07;;
12970;SDS011;6550;48.650;8.774;2023-04-25T09:29:37;9.00;;;1.90;;
12970;SDS011;6550;48.650;8.774;2023-04-25T09:34:43;9.70;;;1.57;;
12970;SDS011;6550;48.650;8.774;2023-04-25T09:37:17;7.18;;;1.67;;
12970;SDS011;6550;48.650;8.774;2023-04-25T09:39:47;5.13;;;2.47;;
12970;SDS011;6550;48.650;8.774;2023-04-25T09:42:16;5.47;;;2.37;;
12970;SDS011;6550;48.650;8.774;2023-04-25T09:44:51;9.43;;;2.20;;
12970;SDS011;6550;48.650;8.774;2023-04-25T09:47:19;7.30;;;2.00;;
12970;SDS011;6550;48.650;8.774;2023-04-25T09:49:48;23.30;;;2.33;;
12970;SDS011;6550;48.650;8.774;2023-04-25T09:52:17;19.10;;;2.53;;
12970;SDS011;6550;48.650;8.774;2023-04-25T09:54:48;11.77;;;2.03;;
12970;SDS011;6550;48.650;8.774;2023-04-25T09:57:20;13.20;;;2.50;;
12970;SDS011;6550;48.650;8.774;2023-04-25T09:59:51;12.93;;;1.77;;
12970;SDS011;6550;48.650;8.774;2023-04-25T10:02:19;8.50;;;1.77;;
12970;SDS011;6550;48.650;8.774;2023-04-25T10:04:48;14.83;;;1.57;;
12970;SDS011;6550;48.650;8.774;2023-04-25T10:07:22;14.87;;;2.00;;
12970;SDS011;6550;48.650;8.774;2023-04-25T10:09:54;9.60;;;1.47;;
12970;SDS011;6550;48.650;8.774;2023-04-25T10:12:30;21.73;;;2.20;;
12970;SDS011;6550;48.650;8.774;2023-04-25T10:14:57;61.73;;;3.53;;
12970;SDS011;6550;48.650;8.774;2023-04-25T10:17:27;46.43;;;3.43;;
12970;SDS011;6550;48.650;8.774;2023-04-25T10:19:54;28.87;;;2.90;;
12970;SDS011;6550;48.650;8.774;2023-04-25T10:25:01;137.27;;;7.97;;
12970;SDS011;6550;48.650;8.774;2023-04-25T10:27:32;209.10;;;11.83;;
12970;SDS011;6550;48.650;8.774;2023-04-25T10:32:37;205.67;;;12.77;;
12970;SDS011;6550;48.650;8.774;2023-04-25T10:35:14;124.00;;;8.00;;
12970;SDS011;6550;48.650;8.774;2023-04-25T10:41:04;134.03;;;8.03;;
12970;SDS011;6550;48.650;8.774;2023-04-25T10:43:35;68.70;;;5.47;;
12970;SDS011;6550;48.650;8.774;2023-04-25T10:46:45;70.20;;;4.60;;
12970;SDS011;6550;48.650;8.774;2023-04-25T10:49:01;91.15;;;6.30;;
12970;SDS011;6550;48.650;8.774;2023-04-25T10:51:29;48.20;;;3.20;;
12970;SDS011;6550;48.650;8.774;2023-04-25T10:54:19;44.53;;;3.60;;
12970;SDS011;6550;48.650;8.774;2023-04-25T10:56:48;35.00;;;2.90;;
12970;SDS011;6550;48.650;8.774;2023-04-25T10:59:22;28.67;;;3.23;;
12970;SDS011;6550;48.650;8.774;2023-04-25T11:01:53;17.23;;;1.40;;
12970;SDS011;6550;48.650;8.774;2023-04-25T11:07:09;16.30;;;1.67;;
12970;SDS011;6550;48.650;8.774;2023-04-25T11:09:57;6.53;;;1.17;;
12970;SDS011;6550;48.650;8.774;2023-04-25T11:12:27;10.03;;;1.30;;
12970;SDS011;6550;48.650;8.774;2023-04-25T11:14:59;8.20;;;2.00;;
12970;SDS011;6550;48.650;8.774;2023-04-25T11:17:29;13.30;;;1.43;;
12970;SDS011;6550;48.650;8.774;2023-04-25T11:19:59;15.43;;;1.10;;
12970;SDS011;6550;48.650;8.774;2023-04-25T11:22:30;8.23;;;1.13;;
12970;SDS011;6550;48.650;8.774;2023-04-25T11:24:57;16.08;;;1.20;;
12970;SDS011;6550;48.650;8.774;2023-04-25T11:27:24;6.30;;;0.90;;
12970;SDS011;6550;48.650;8.774;2023-04-25T11:29:51;8.83;;;1.10;;
12970;SDS011;6550;48.650;8.774;2023-04-25T11:32:18;79.70;;;4.13;;
12970;SDS011;6550;48.650;8.774;2023-04-25T11:34:46;39.80;;;2.83;;
12970;SDS011;6550;48.650;8.774;2023-04-25T11:37:15;68.03;;;4.13;;
12970;SDS011;6550;48.650;8.774;2023-04-25T11:39:44;92.80;;;5.77;;
12970;SDS011;6550;48.650;8.774;2023-04-25T11:42:14;115.10;;;6.83;;
12970;SDS011;6550;48.650;8.774;2023-04-25T11:44:43;72.20;;;7.40;;
12970;SDS011;6550;48.650;8.774;2023-04-25T11:47:10;60.47;;;3.80;;
12970;SDS011;6550;48.650;8.774;2023-04-25T11:49:39;53.37;;;3.27;;
12970;SDS011;6550;48.650;8.774;2023-04-25T11:52:08;28.63;;;2.93;;
12970;SDS011;6550;48.650;8.774;2023-04-25T11:54:37;19.53;;;1.50;;
12970;SDS011;6550;48.650;8.774;2023-04-25T11:57:04;17.90;;;1.60;;
12970;SDS011;6550;48.650;8.774;2023-04-25T11:59:31;26.08;;;2.47;;
12970;SDS011;6550;48.650;8.774;2023-04-25T12:01:58;36.83;;;2.87;;
12970;SDS011;6550;48.650;8.774;2023-04-25T12:04:30;39.03;;;2.67;;
12970;SDS011;6550;48.650;8.774;2023-04-25T12:07:01;79.03;;;5.27;;
12970;SDS011;6550;48.650;8.774;2023-04-25T12:09:32;29.23;;;3.20;;
12970;SDS011;6550;48.650;8.774;2023-04-25T12:12:01;68.87;;;4.60;;
12970;SDS011;6550;48.650;8.774;2023-04-25T12:14:34;117.83;;;7.17;;
12970;SDS011;6550;48.650;8.774;2023-04-25T12:17:02;111.57;;;6.23;;
12970;SDS011;6550;48.650;8.774;2023-04-25T12:19:35;94.63;;;6.93;;
12970;SDS011;6550;48.650;8.774;2023-04-25T12:22:19;56.33;;;4.37;;
12970;SDS011;6550;48.650;8.774;2023-04-25T12:24:48;45.10;;;3.70;;
12970;SDS011;6550;48.650;8.774;2023-04-25T12:27:17;34.60;;;3.37;;
12970;SDS011;6550;48.650;8.774;2023-04-25T12:29:52;32.00;;;2.70;;
12970;SDS011;6550;48.650;8.774;2023-04-25T12:32:19;31.60;;;2.37;;
12970;SDS011;6550;48.650;8.774;2023-04-25T12:34:46;31.35;;;2.47;;
12970;SDS011;6550;48.650;8.774;2023-04-25T12:37:16;14.60;;;1.63;;
12970;SDS011;6550;48.650;8.774;2023-04-25T12:39:42;14.10;;;1.60;;
12970;SDS011;6550;48.650;8.774;2023-04-25T12:42:09;5.43;;;1.03;;
12970;SDS011;6550;48.650;8.774;2023-04-25T12:44:39;5.90;;;1.40;;
12970;SDS011;6550;48.650;8.774;2023-04-25T12:47:06;11.47;;;2.00;;
12970;SDS011;6550;48.650;8.774;2023-04-25T12:49:33;28.43;;;3.30;;
12970;SDS011;6550;48.650;8.774;2023-04-25T12:52:05;36.03;;;2.70;;
12970;SDS011;6550;48.650;8.774;2023-04-25T12:54:34;56.93;;;3.83;;
12970;SDS011;6550;48.650;8.774;2023-04-25T12:57:03;45.55;;;3.47;;
12970;SDS011;6550;48.650;8.774;2023-04-25T12:59:30;31.80;;;3.17;;
12970;SDS011;6550;48.650;8.774;2023-04-25T13:01:56;35.27;;;2.53;;
12970;SDS011;6550;48.650;8.774;2023-04-25T13:04:23;27.30;;;2.37;;
12970;SDS011;6550;48.650;8.774;2023-04-25T13:06:51;21.67;;;1.97;;
12970;SDS011;6550;48.650;8.774;2023-04-25T13:09:24;25.93;;;2.43;;
12970;SDS011;6550;48.650;8.774;2023-04-25T13:11:53;26.48;;;2.60;;
12970;SDS011;6550;48.650;8.774;2023-04-25T13:14:24;89.23;;;5.93;;
12970;SDS011;6550;48.650;8.774;2023-04-25T13:16:51;106.33;;;5.27;;
12970;SDS011;6550;48.650;8.774;2023-04-25T13:19:20;78.37;;;4.97;;
12970;SDS011;6550;48.650;8.774;2023-04-25T13:21:47;61.70;;;3.73;;
12970;SDS011;6550;48.650;8.774;2023-04-25T13:24:14;64.63;;;4.30;;
12970;SDS011;6550;48.650;8.774;2023-04-25T13:26:43;49.27;;;4.00;;
12970;SDS011;6550;48.650;8.774;2023-04-25T13:29:10;53.60;;;5.87;;
12970;SDS011;6550;48.650;8.774;2023-04-25T13:31:37;80.25;;;6.03;;
12970;SDS011;6550;48.650;8.774;2023-04-25T13:34:04;59.20;;;5.53;;
12970;SDS011;6550;48.650;8.774;2023-04-25T13:36:31;34.80;;;4.47;;
12970;SDS011;6550;48.650;8.774;2023-04-25T13:39:03;63.47;;;4.07;;
12970;SDS011;6550;48.650;8.774;2023-04-25T13:41:34;75.50;;;4.33;;
12970;SDS011;6550;48.650;8.774;2023-04-25T13:44:01;52.40;;;4.13;;
12970;SDS011;6550;48.650;8.774;2023-04-25T13:46:28;52.88;;;4.68;;
12970;SDS011;6550;48.650;8.774;2023-04-25T13:49:11;27.80;;;3.10;;
12970;SDS011;6550;48.650;8.774;2023-04-25T13:51:40;24.87;;;2.77;;
12970;SDS011;6550;48.650;8.774;2023-04-25T13:54:08;13.37;;;2.03;;
12970;SDS011;6550;48.650;8.774;2023-04-25T13:56:37;7.97;;;1.77;;
12970;SDS011;6550;48.650;8.774;2023-04-25T13:59:08;7.37;;;1.60;;
12970;SDS011;6550;48.650;8.774;2023-04-25T14:01:35;1.67;;;1.40;;
12970;SDS011;6550;48.650;8.774;2023-04-25T14:04:02;25.83;;;3.10;;
12970;SDS011;6550;48.650;8.774;2023-04-25T14:06:32;97.40;;;4.97;;
12970;SDS011;6550;48.650;8.774;2023-04-25T14:09:04;58.70;;;5.40;;
12970;SDS011;6550;48.650;8.774;2023-04-25T14:11:32;73.90;;;6.10;;
12970;SDS011;6550;48.650;8.774;2023-04-25T14:13:59;87.20;;;6.03;;
12970;SDS011;6550;48.650;8.774;2023-04-25T14:16:26;176.77;;;9.57;;
12970;SDS011;6550;48.650;8.774;2023-04-25T14:18:57;158.52;;;9.73;;
12970;SDS011;6550;48.650;8.774;2023-04-25T14:21:27;261.30;;;16.07;;
12970;SDS011;6550;48.650;8.774;2023-04-25T14:23:56;261.00;;;14.30;;
12970;SDS011;6550;48.650;8.774;2023-04-25T14:26:23;256.33;;;15.97;;
12970;SDS011;6550;48.650;8.774;2023-04-25T14:28:54;283.00;;;15.63;;
12970;SDS011;6550;48.650;8.774;2023-04-25T14:31:21;235.90;;;13.47;;
12970;SDS011;6550;48.650;8.774;2023-04-25T14:33:50;149.47;;;10.97;;
12970;SDS011;6550;48.650;8.774;2023-04-25T14:36:20;118.40;;;6.63;;
12970;SDS011;6550;48.650;8.774;2023-04-25T14:38:49;76.50;;;4.90;;
12970;SDS011;6550;48.650;8.774;2023-04-25T14:41:16;67.57;;;6.53;;
12970;SDS011;6550;48.650;8.774;2023-04-25T14:43:43;90.23;;;5.23;;
12970;SDS011;6550;48.650;8.774;2023-04-25T14:46:11;78.87;;;4.43;;
12970;SDS011;6550;48.650;8.774;2023-04-25T14:48:40;69.67;;;3.77;;
12970;SDS011;6550;48.650;8.774;2023-04-25T14:51:07;40.00;;;3.60;;
12970;SDS011;6550;48.650;8.774;2023-04-25T14:53:34;40.63;;;2.53;;
12970;SDS011;6550;48.650;8.774;2023-04-25T14:56:01;37.53;;;2.40;;
12970;SDS011;6550;48.650;8.774;2023-04-25T14:58:32;16.83;;;2.13;;
12970;SDS011;6550;48.650;8.774;2023-04-25T15:00:59;33.00;;;2.73;;
12970;SDS011;6550;48.650;8.774;2023-04-25T15:03:29;8.83;;;1.67;;
12970;SDS011;6550;48.650;8.774;2023-04-25T15:05:56;9.80;;;0.90;;
12970;SDS011;6550;48.650;8.774;2023-04-25T15:08:23;4.60;;;0.90;;
12970;SDS011;6550;48.650;8.774;2023-04-25T15:10:52;3.37;;;0.60;;
12970;SDS011;6550;48.650;8.774;2023-04-25T15:13:19;0.70;;;0.70;;
12970;SDS011;6550;48.650;8.774;2023-04-25T15:15:49;4.27;;;0.60;;
12970;SDS011;6550;48.650;8.774;2023-04-25T15:18:18;2.20;;;0.60;;
12970;SDS011;6550;48.650;8.774;2023-04-25T15:20:48;4.17;;;1.00;;